createdAt,value
2022-11-17T00:00:44.886Z,14.65
2022-11-17T00:03:16.033Z,14.82
2022-11-17T00:05:46.394Z,14.69
2022-11-17T00:08:14.735Z,14.48
2022-11-17T00:10:43.209Z,14.39
2022-11-17T00:13:30.222Z,14.81
2022-11-17T00:15:58.629Z,14.66
2022-11-17T00:18:45.677Z,14.38
2022-11-17T00:21:22.136Z,14.37
2022-11-17T00:23:51.072Z,14.20
2022-11-17T00:26:21.584Z,14.87
2022-11-17T00:28:54.216Z,15.21
2022-11-17T00:31:43.398Z,14.42
2022-11-17T00:34:15.562Z,14.97
2022-11-17T00:36:48.523Z,14.92
2022-11-17T00:39:18.843Z,14.69
2022-11-17T00:41:47.825Z,15.11
2022-11-17T00:44:16.850Z,15.12
2022-11-17T00:46:45.225Z,14.23
2022-11-17T00:49:15.633Z,14.84
2022-11-17T00:51:46.541Z,14.02
2022-11-17T00:54:15.654Z,14.00
2022-11-17T00:56:46.197Z,14.48
2022-11-17T00:59:18.399Z,14.92
2022-11-17T01:01:47.624Z,14.97
2022-11-17T01:04:20.003Z,14.55
2022-11-17T01:06:51.681Z,14.45
2022-11-17T01:09:23.473Z,15.11
2022-11-17T01:11:54.054Z,14.46
2022-11-17T01:14:25.078Z,14.94
2022-11-17T01:16:55.458Z,15.24
2022-11-17T01:19:25.899Z,13.98
2022-11-17T01:21:56.301Z,13.96
2022-11-17T01:24:24.972Z,13.98
2022-11-17T01:26:53.577Z,13.92
2022-11-17T01:29:23.327Z,14.72
2022-11-17T01:31:54.165Z,14.64
2022-11-17T01:34:22.830Z,14.44
2022-11-17T01:37:08.548Z,14.57
2022-11-17T01:39:38.222Z,14.61
2022-11-17T01:42:15.165Z,14.96
2022-11-17T01:45:00.607Z,14.59
2022-11-17T01:47:44.020Z,14.57
2022-11-17T01:50:26.363Z,14.22
2022-11-17T01:53:00.116Z,14.44
2022-11-17T01:55:35.979Z,14.15
2022-11-17T01:58:10.580Z,14.25
2022-11-17T02:00:39.437Z,14.11
2022-11-17T02:03:11.339Z,14.13
2022-11-17T02:05:51.620Z,14.66
2022-11-17T02:08:25.063Z,14.37
2022-11-17T02:10:55.616Z,14.46
2022-11-17T02:13:24.828Z,14.43
2022-11-17T02:15:54.004Z,14.32
2022-11-17T02:18:23.562Z,14.70
2022-11-17T02:21:23.604Z,15.48
2022-11-17T02:24:29.867Z,14.51
2022-11-17T02:27:33.510Z,14.17
2022-11-17T02:30:05.260Z,14.65
2022-11-17T02:32:46.242Z,15.29
2022-11-17T02:35:24.377Z,14.88
2022-11-17T02:38:02.620Z,14.05
2022-11-17T02:40:36.425Z,14.50
2022-11-17T02:43:30.159Z,14.32
2022-11-17T02:46:04.538Z,14.69
2022-11-17T02:48:36.005Z,14.49
2022-11-17T02:51:06.687Z,14.55
2022-11-17T02:53:36.090Z,14.68
2022-11-17T02:56:05.127Z,14.34
2022-11-17T02:58:36.196Z,14.10
2022-11-17T03:01:34.243Z,14.45
2022-11-17T03:04:23.574Z,14.57
2022-11-17T03:07:05.059Z,15.13
2022-11-17T03:09:48.720Z,14.89
2022-11-17T03:12:26.299Z,14.49
2022-11-17T03:15:04.278Z,15.56
2022-11-17T03:17:41.209Z,15.55
2022-11-17T03:20:15.068Z,14.76
2022-11-17T03:22:50.273Z,14.95
2022-11-17T03:25:23.529Z,15.52
2022-11-17T03:27:56.362Z,14.69
2022-11-17T03:30:26.834Z,15.35
2022-11-17T03:33:05.155Z,14.84
2022-11-17T03:35:38.236Z,14.15
2022-11-17T03:39:16.819Z,13.69
2022-11-17T03:45:56.928Z,13.85
2022-11-17T03:48:32.529Z,14.43
2022-11-17T03:51:09.199Z,15.03
2022-11-17T03:53:38.542Z,14.79
2022-11-17T03:56:20.698Z,14.61
2022-11-17T03:58:56.902Z,14.76
2022-11-17T04:01:28.815Z,14.91
2022-11-17T04:03:57.242Z,14.76
2022-11-17T04:06:25.640Z,15.08
2022-11-17T04:08:54.313Z,15.61
2022-11-17T04:11:40.348Z,15.39
2022-11-17T04:14:29.022Z,14.85
2022-11-17T04:17:00.957Z,15.06
2022-11-17T04:19:29.238Z,15.39
2022-11-17T04:21:57.485Z,15.64
2022-11-17T04:24:25.812Z,14.67
2022-11-17T04:27:11.584Z,14.65
2022-11-17T04:29:40.342Z,15.31
2022-11-17T04:32:10.111Z,15.81
2022-11-17T04:34:41.612Z,14.97
2022-11-17T04:37:17.384Z,14.63
2022-11-17T04:39:46.525Z,14.16
2022-11-17T04:42:13.949Z,14.45
2022-11-17T04:44:42.889Z,14.69
2022-11-17T04:47:12.592Z,15.29
2022-11-17T04:49:40.883Z,15.43
2022-11-17T04:52:09.182Z,15.48
2022-11-17T04:54:37.685Z,15.46
2022-11-17T04:57:05.947Z,14.37
2022-11-17T04:59:34.240Z,14.62
2022-11-17T05:02:05.878Z,14.71
2022-11-17T05:04:53.704Z,14.64
2022-11-17T05:07:22.033Z,15.37
2022-11-17T05:09:50.325Z,15.19
2022-11-17T05:12:36.359Z,14.89
2022-11-17T05:15:05.136Z,14.71
2022-11-17T05:17:32.434Z,14.65
2022-11-17T05:20:02.406Z,14.88
2022-11-17T05:22:48.218Z,15.08
2022-11-17T05:25:16.872Z,15.10
2022-11-17T05:27:47.747Z,14.22
2022-11-17T05:30:17.053Z,15.12
2022-11-17T05:32:45.547Z,14.57
2022-11-17T05:35:15.446Z,13.75
2022-11-17T05:37:43.996Z,15.20
2022-11-17T05:40:13.122Z,14.42
2022-11-17T05:42:41.415Z,15.02
2022-11-17T05:45:11.128Z,15.59
2022-11-17T05:47:39.999Z,14.73
2022-11-17T05:50:09.167Z,15.26
2022-11-17T05:52:38.962Z,15.26
2022-11-17T05:55:08.870Z,14.85
2022-11-17T05:57:37.522Z,13.63
2022-11-17T06:00:09.028Z,13.99
2022-11-17T06:02:43.169Z,14.67
2022-11-17T06:05:17.066Z,14.93
2022-11-17T06:07:50.234Z,15.02
2022-11-17T06:10:19.436Z,15.18
2022-11-17T06:12:48.116Z,15.59
2022-11-17T06:15:16.740Z,15.62
2022-11-17T06:17:51.000Z,15.65
2022-11-17T06:20:23.813Z,15.48
2022-11-17T06:22:56.769Z,15.60
2022-11-17T06:25:29.352Z,15.27
2022-11-17T06:27:59.846Z,14.74
2022-11-17T06:30:28.412Z,13.97
2022-11-17T06:32:57.262Z,14.56
2022-11-17T06:35:26.695Z,15.43
2022-11-17T06:37:56.927Z,15.12
2022-11-17T06:40:26.449Z,14.29
2022-11-17T06:43:10.554Z,14.42
2022-11-17T06:45:40.874Z,14.49
2022-11-17T06:48:11.049Z,14.17
2022-11-17T06:50:39.517Z,14.17
2022-11-17T06:53:12.899Z,15.01
2022-11-17T06:55:41.821Z,14.64
2022-11-17T06:58:12.384Z,14.59
2022-11-17T07:00:40.995Z,14.76
2022-11-17T07:03:11.519Z,14.81
2022-11-17T07:05:40.661Z,14.81
2022-11-17T07:08:10.800Z,14.78
2022-11-17T07:10:41.657Z,15.07
2022-11-17T07:13:12.448Z,14.21
2022-11-17T07:15:40.983Z,15.05
2022-11-17T07:18:09.320Z,15.74
2022-11-17T07:20:37.780Z,15.10
2022-11-17T07:23:06.228Z,15.03
2022-11-17T07:25:36.265Z,15.39
2022-11-17T07:28:06.348Z,15.68
2022-11-17T07:30:35.202Z,16.20
2022-11-17T07:33:03.626Z,15.19
2022-11-17T07:35:31.947Z,16.13
2022-11-17T07:38:01.495Z,16.28
2022-11-17T07:40:30.543Z,16.17
2022-11-17T07:43:01.187Z,15.80
2022-11-17T07:45:31.800Z,15.41
2022-11-17T07:48:02.953Z,16.15
2022-11-17T07:50:32.116Z,16.13
2022-11-17T07:53:02.064Z,16.61
2022-11-17T07:55:30.464Z,16.64
2022-11-17T07:58:02.054Z,16.35
2022-11-17T08:00:33.720Z,16.96
2022-11-17T08:03:04.180Z,17.20
2022-11-17T08:05:35.865Z,16.38
2022-11-17T08:08:09.357Z,17.11
2022-11-17T08:10:37.880Z,17.36
2022-11-17T08:13:07.757Z,17.68
2022-11-17T08:15:36.986Z,17.91
2022-11-17T08:18:06.248Z,18.15
2022-11-17T08:20:34.589Z,18.79
2022-11-17T08:23:02.914Z,18.27
2022-11-17T08:25:31.274Z,18.36
2022-11-17T08:28:00.131Z,18.22
2022-11-17T08:30:30.591Z,18.10
2022-11-17T08:32:58.914Z,17.87
2022-11-17T08:35:30.682Z,18.38
2022-11-17T08:38:01.361Z,17.51
2022-11-17T08:40:29.711Z,18.77
2022-11-17T08:43:01.536Z,19.26
2022-11-17T08:45:31.614Z,19.51
2022-11-17T08:48:00.271Z,19.05
2022-11-17T08:50:28.824Z,18.82
2022-11-17T08:52:57.236Z,19.59
2022-11-17T08:55:26.428Z,18.71
2022-11-17T08:57:54.904Z,19.29
2022-11-17T09:00:23.772Z,19.21
2022-11-17T09:02:53.519Z,19.99
2022-11-17T09:05:21.986Z,19.20
2022-11-17T09:07:50.441Z,19.51
2022-11-17T09:10:19.480Z,19.12
2022-11-17T09:12:47.907Z,19.00
2022-11-17T09:15:16.517Z,19.26
2022-11-17T09:17:47.819Z,19.24
2022-11-17T09:20:18.856Z,19.37
2022-11-17T09:22:47.720Z,18.87
2022-11-17T09:25:16.988Z,18.78
2022-11-17T09:27:45.465Z,18.87
2022-11-17T09:30:14.493Z,18.73
2022-11-17T09:32:42.836Z,19.29
2022-11-17T09:35:11.321Z,18.64
2022-11-17T09:37:40.997Z,18.55
2022-11-17T09:40:15.235Z,19.80
2022-11-17T09:42:43.683Z,18.97
2022-11-17T09:45:19.555Z,18.80
2022-11-17T09:48:12.462Z,18.87
2022-11-17T09:50:46.486Z,19.72
2022-11-17T09:53:26.078Z,20.09
2022-11-17T09:55:57.921Z,19.64
2022-11-17T09:58:34.741Z,20.01
2022-11-17T10:01:03.427Z,19.63
2022-11-17T10:03:38.829Z,19.13
2022-11-17T10:06:16.329Z,19.31
2022-11-17T10:09:00.399Z,20.04
2022-11-17T10:11:35.959Z,19.93
2022-11-17T10:14:14.127Z,19.91
2022-11-17T10:16:46.002Z,18.97
2022-11-17T10:19:20.258Z,18.94
2022-11-17T10:21:53.308Z,18.87
2022-11-17T10:24:42.209Z,19.51
2022-11-17T10:27:23.298Z,20.58
2022-11-17T10:30:03.795Z,20.30
2022-11-17T10:32:35.694Z,19.49
2022-11-17T10:35:20.045Z,19.78
2022-11-17T10:37:56.539Z,19.49
2022-11-17T10:40:29.717Z,19.34
2022-11-17T10:43:22.042Z,19.35
2022-11-17T10:45:53.950Z,20.10
2022-11-17T10:48:28.315Z,20.01
2022-11-17T10:50:58.970Z,20.76
2022-11-17T10:53:45.062Z,20.39
2022-11-17T10:56:21.073Z,20.21
2022-11-17T10:59:05.227Z,20.05
2022-11-17T11:01:37.507Z,21.05
2022-11-17T11:04:08.677Z,19.91
2022-11-17T11:06:37.504Z,19.90
2022-11-17T11:09:13.185Z,19.27
2022-11-17T11:11:47.808Z,19.98
2022-11-17T11:14:22.887Z,19.72
2022-11-17T11:16:52.118Z,19.37
2022-11-17T11:19:22.145Z,19.39
2022-11-17T11:22:21.590Z,19.55
2022-11-17T11:24:58.451Z,20.15
2022-11-17T11:27:46.697Z,19.53
2022-11-17T11:30:17.255Z,19.83
2022-11-17T11:33:02.681Z,20.08
2022-11-17T11:35:46.503Z,19.55
2022-11-17T11:38:39.620Z,19.95
2022-11-17T11:41:26.050Z,20.46
2022-11-17T11:44:15.726Z,20.76
2022-11-17T11:46:52.824Z,20.58
2022-11-17T11:49:32.983Z,20.68
2022-11-17T11:52:03.483Z,20.72
2022-11-17T11:54:40.302Z,21.28
2022-11-17T11:57:13.843Z,21.89
2022-11-17T11:59:53.476Z,21.23
2022-11-17T12:02:30.317Z,22.14
2022-11-17T12:05:09.255Z,22.72
2022-11-17T12:07:47.238Z,22.41
2022-11-17T12:10:22.584Z,21.74
2022-11-17T12:12:52.091Z,22.25
2022-11-17T12:15:35.792Z,23.27
2022-11-17T12:18:13.097Z,22.48
2022-11-17T12:20:58.184Z,22.14
2022-11-17T12:24:15.796Z,21.75
2022-11-17T12:26:46.269Z,21.28
2022-11-17T12:29:34.481Z,21.38
2022-11-17T12:32:05.054Z,21.97
2022-11-17T12:34:37.269Z,21.39
2022-11-17T12:37:26.544Z,20.75
2022-11-17T12:40:07.930Z,21.25
2022-11-17T12:42:37.753Z,20.93
2022-11-17T12:45:12.058Z,20.43
2022-11-17T12:47:59.212Z,20.98
2022-11-17T12:50:50.992Z,21.18
2022-11-17T12:53:34.408Z,21.71
2022-11-17T12:56:57.666Z,21.89
2022-11-17T13:00:15.031Z,21.11
2022-11-17T13:03:00.765Z,21.62
2022-11-17T13:05:36.796Z,22.15
2022-11-17T13:08:24.366Z,22.40
2022-11-17T13:11:06.700Z,22.26
2022-11-17T13:13:37.112Z,22.26
2022-11-17T13:16:06.787Z,21.86
2022-11-17T13:18:42.032Z,21.34
2022-11-17T13:21:30.073Z,21.71
2022-11-17T13:24:01.453Z,21.92
2022-11-17T13:26:35.962Z,22.36
2022-11-17T13:29:07.975Z,22.76
2022-11-17T13:31:36.582Z,22.11
2022-11-17T13:34:14.237Z,21.89
2022-11-17T13:36:54.929Z,22.47
2022-11-17T13:39:27.317Z,21.58
2022-11-17T13:41:56.816Z,22.33
2022-11-17T13:44:28.776Z,22.90
2022-11-17T13:46:59.225Z,22.15
2022-11-17T13:49:38.654Z,22.08
2022-11-17T13:52:15.510Z,22.04
2022-11-17T13:54:46.206Z,21.97
2022-11-17T13:57:25.115Z,22.45
2022-11-17T13:59:53.756Z,22.56
2022-11-17T14:02:29.458Z,22.38
2022-11-17T14:05:25.830Z,21.91
2022-11-17T14:07:56.886Z,21.90
2022-11-17T14:10:33.044Z,22.23
2022-11-17T14:13:26.527Z,21.37
2022-11-17T14:16:01.131Z,21.59
2022-11-17T14:18:34.157Z,21.07
2022-11-17T14:21:15.024Z,21.08
2022-11-17T14:23:44.727Z,20.18
2022-11-17T14:26:20.884Z,20.62
2022-11-17T14:28:50.777Z,21.38
2022-11-17T14:31:19.989Z,21.53
2022-11-17T14:33:50.491Z,21.23
2022-11-17T14:36:20.494Z,21.12
2022-11-17T14:38:49.644Z,21.05
2022-11-17T14:41:19.475Z,20.74
2022-11-17T14:43:48.556Z,20.58
2022-11-17T14:46:21.585Z,20.93
2022-11-17T14:48:50.208Z,20.44
2022-11-17T14:51:21.022Z,20.65
2022-11-17T14:53:49.933Z,21.35
2022-11-17T14:56:21.764Z,20.43
2022-11-17T14:58:56.367Z,20.20
2022-11-17T15:01:29.070Z,19.08
2022-11-17T15:03:58.944Z,18.75
2022-11-17T15:06:29.351Z,18.88
2022-11-17T15:09:00.132Z,19.34
2022-11-17T15:11:39.249Z,18.67
2022-11-17T15:14:08.295Z,18.27
2022-11-17T15:16:37.660Z,18.72
2022-11-17T15:19:06.851Z,19.26
2022-11-17T15:21:36.781Z,19.63
2022-11-17T15:24:06.520Z,19.77
2022-11-17T15:26:35.812Z,19.50
2022-11-17T15:29:04.252Z,19.41
2022-11-17T15:31:32.859Z,19.68
2022-11-17T15:34:02.849Z,19.99
2022-11-17T15:36:31.948Z,20.63
2022-11-17T15:39:02.015Z,20.07
2022-11-17T15:41:32.977Z,19.70
2022-11-17T15:44:01.795Z,20.01
2022-11-17T15:46:30.122Z,20.19
2022-11-17T15:48:58.562Z,20.21
2022-11-17T15:51:29.020Z,20.14
2022-11-17T15:53:59.819Z,19.94
2022-11-17T15:56:32.178Z,19.85
2022-11-17T15:59:03.253Z,19.29
2022-11-17T16:01:35.504Z,19.56
2022-11-17T16:04:06.128Z,19.66
2022-11-17T16:06:39.283Z,19.65
2022-11-17T16:09:08.348Z,19.60
2022-11-17T16:11:38.729Z,19.26
2022-11-17T16:14:08.049Z,19.33
2022-11-17T16:16:39.586Z,19.10
2022-11-17T16:19:08.900Z,19.33
2022-11-17T16:21:37.191Z,19.42
2022-11-17T16:24:08.262Z,18.75
2022-11-17T16:26:38.354Z,18.89
2022-11-17T16:29:08.917Z,18.32
2022-11-17T16:31:39.762Z,18.46
2022-11-17T16:34:12.876Z,18.71
2022-11-17T16:36:43.739Z,18.06
2022-11-17T16:39:14.670Z,17.88
2022-11-17T16:41:46.477Z,18.11
2022-11-17T16:44:20.123Z,17.55
2022-11-17T16:46:50.818Z,17.72
2022-11-17T16:49:20.752Z,17.83
2022-11-17T16:51:51.471Z,17.73
2022-11-17T16:54:20.385Z,17.54
2022-11-17T16:56:50.350Z,17.41
2022-11-17T16:59:18.966Z,17.15
2022-11-17T17:01:47.729Z,17.30
2022-11-17T17:04:16.242Z,17.24
2022-11-17T17:06:46.370Z,17.10
2022-11-17T17:09:17.211Z,17.23
2022-11-17T17:11:47.111Z,16.66
2022-11-17T17:14:17.799Z,16.42
2022-11-17T17:16:46.258Z,16.27
2022-11-17T17:19:16.574Z,16.48
2022-11-17T17:21:45.701Z,16.76
2022-11-17T17:24:14.537Z,15.98
2022-11-17T17:26:42.926Z,15.92
2022-11-17T17:29:12.538Z,16.37
2022-11-17T17:31:43.492Z,16.09
2022-11-17T17:34:14.983Z,16.19
2022-11-17T17:36:43.893Z,15.51
2022-11-17T17:39:16.291Z,16.22
2022-11-17T17:41:46.114Z,16.79
2022-11-17T17:44:17.859Z,16.51
2022-11-17T17:46:48.727Z,16.97
2022-11-17T17:49:19.001Z,17.05
2022-11-17T17:51:47.824Z,16.41
2022-11-17T17:54:18.746Z,15.81
2022-11-17T17:56:49.537Z,16.52
2022-11-17T17:59:19.040Z,16.25
2022-11-17T18:01:49.686Z,16.72
2022-11-17T18:04:18.050Z,16.87
2022-11-17T18:06:48.283Z,16.28
2022-11-17T18:09:19.497Z,15.99
2022-11-17T18:11:50.116Z,16.29
2022-11-17T18:14:22.407Z,16.07
2022-11-17T18:16:52.726Z,16.10
2022-11-17T18:19:21.144Z,16.45
2022-11-17T18:21:49.462Z,16.90
2022-11-17T18:24:17.956Z,16.61
2022-11-17T18:26:46.327Z,17.52
2022-11-17T18:29:18.412Z,18.07
2022-11-17T18:31:49.373Z,17.96
2022-11-17T18:34:21.857Z,17.76
2022-11-17T18:36:50.930Z,17.70
2022-11-17T18:39:21.455Z,18.05
2022-11-17T18:41:56.762Z,18.01
2022-11-17T18:44:25.103Z,17.21
2022-11-17T18:46:55.020Z,17.72
2022-11-17T18:49:28.063Z,18.07
2022-11-17T18:51:56.559Z,18.53
2022-11-17T18:54:24.903Z,18.28
2022-11-17T18:56:53.369Z,18.27
2022-11-17T18:59:21.883Z,18.51
2022-11-17T19:01:51.774Z,18.44
2022-11-17T19:04:20.573Z,18.16
2022-11-17T19:06:50.956Z,17.72
2022-11-17T19:09:21.314Z,17.38
2022-11-17T19:11:49.595Z,17.53
2022-11-17T19:14:18.021Z,18.11
2022-11-17T19:16:46.512Z,17.85
2022-11-17T19:19:15.660Z,17.45
2022-11-17T19:21:44.539Z,17.54
2022-11-17T19:24:15.279Z,17.12
2022-11-17T19:26:44.026Z,17.05
2022-11-17T19:29:17.259Z,17.02
2022-11-17T19:31:47.504Z,16.94
2022-11-17T19:34:16.357Z,16.87
2022-11-17T19:36:45.429Z,16.50
2022-11-17T19:39:17.039Z,16.53
2022-11-17T19:41:47.660Z,15.93
2022-11-17T19:44:16.111Z,15.47
2022-11-17T19:46:44.454Z,15.21
2022-11-17T19:49:14.009Z,15.18
2022-11-17T19:51:42.556Z,15.35
2022-11-17T19:54:12.023Z,15.38
2022-11-17T19:56:41.989Z,15.63
2022-11-17T19:59:15.565Z,15.59
2022-11-17T20:01:46.785Z,15.48
2022-11-17T20:04:15.655Z,15.02
2022-11-17T20:06:44.156Z,15.28
2022-11-17T20:09:15.058Z,14.84
2022-11-17T20:11:45.454Z,14.90
2022-11-17T20:14:14.532Z,15.55
2022-11-17T20:16:43.148Z,15.41
2022-11-17T20:19:12.308Z,14.64
2022-11-17T20:21:40.908Z,15.23
2022-11-17T20:24:09.998Z,15.88
2022-11-17T20:26:40.846Z,15.81
2022-11-17T20:29:10.709Z,15.62
2022-11-17T20:31:39.173Z,15.49
2022-11-17T20:34:07.786Z,15.73
2022-11-17T20:36:36.445Z,15.86
2022-11-17T20:39:07.804Z,16.40
2022-11-17T20:41:36.720Z,16.05
2022-11-17T20:44:05.497Z,17.10
2022-11-17T20:46:35.434Z,16.90
2022-11-17T20:49:03.764Z,16.63
2022-11-17T20:51:34.552Z,16.78
2022-11-17T20:54:04.114Z,16.75
2022-11-17T20:56:32.621Z,16.76
2022-11-17T20:59:01.454Z,16.84
2022-11-17T21:01:29.865Z,16.56
2022-11-17T21:03:59.751Z,17.24
2022-11-17T21:06:29.646Z,15.71
2022-11-17T21:08:57.909Z,16.50
2022-11-17T21:11:43.914Z,16.23
2022-11-17T21:14:14.381Z,16.36
2022-11-17T21:16:45.673Z,16.46
2022-11-17T21:19:16.541Z,16.53
2022-11-17T21:21:45.353Z,16.37
2022-11-17T21:24:14.501Z,15.98
2022-11-17T21:26:43.219Z,15.83
2022-11-17T21:29:11.546Z,15.78
2022-11-17T21:31:39.899Z,15.82
2022-11-17T21:34:08.832Z,16.12
2022-11-17T21:36:38.580Z,15.65
2022-11-17T21:39:06.994Z,15.31
2022-11-17T21:41:37.846Z,14.87
2022-11-17T21:44:06.737Z,15.02
2022-11-17T21:46:36.253Z,15.02
2022-11-17T21:49:05.087Z,15.01
2022-11-17T21:51:39.008Z,15.27
2022-11-17T21:54:09.756Z,14.84
2022-11-17T21:56:38.345Z,14.87
2022-11-17T21:59:11.304Z,14.38
2022-11-17T22:01:40.428Z,14.22
2022-11-17T22:04:16.516Z,14.45
2022-11-17T22:06:46.808Z,14.50
2022-11-17T22:09:15.449Z,14.16
2022-11-17T22:11:44.020Z,15.86
2022-11-17T22:14:14.766Z,15.82
2022-11-17T22:16:45.025Z,16.00
2022-11-17T22:19:14.936Z,15.83
2022-11-17T22:21:46.119Z,15.98
2022-11-17T22:24:14.852Z,16.41
2022-11-17T22:26:45.601Z,16.72
2022-11-17T22:29:17.817Z,16.34
2022-11-17T22:31:48.549Z,15.57
2022-11-17T22:34:19.247Z,16.14
2022-11-17T22:36:51.411Z,15.73
2022-11-17T22:39:20.248Z,16.19
2022-11-17T22:41:48.862Z,15.98
2022-11-17T22:44:19.528Z,15.43
2022-11-17T22:46:49.064Z,15.10
2022-11-17T22:49:17.930Z,15.19
2022-11-17T22:52:07.655Z,15.43
2022-11-17T22:54:36.294Z,15.40
2022-11-17T22:57:05.827Z,15.44
2022-11-17T22:59:38.220Z,15.59
2022-11-17T23:02:06.540Z,16.11
2022-11-17T23:04:34.974Z,16.48
2022-11-17T23:07:04.776Z,16.09
2022-11-17T23:09:33.105Z,16.32
2022-11-17T23:12:02.461Z,16.43
2022-11-17T23:14:30.967Z,16.43
2022-11-17T23:16:59.462Z,15.80
2022-11-17T23:19:27.761Z,15.79
2022-11-17T23:21:56.102Z,15.66
2022-11-17T23:24:25.971Z,15.52
2022-11-17T23:26:54.334Z,15.49
2022-11-17T23:29:22.823Z,15.89
2022-11-17T23:31:51.211Z,16.61
2022-11-17T23:34:27.626Z,16.80
2022-11-17T23:37:04.290Z,16.80
2022-11-17T23:39:34.395Z,16.98
2022-11-17T23:42:03.091Z,16.49
2022-11-17T23:44:31.849Z,20.62
2022-11-17T23:47:00.198Z,19.36
2022-11-17T23:49:28.536Z,18.04
2022-11-17T23:51:56.851Z,17.84
2022-11-17T23:54:25.916Z,17.75
2022-11-17T23:56:55.732Z,17.91
2022-11-17T23:59:24.147Z,17.28
